Terminal Aerodrome Forecast
Issued by NWS

Home | Current Version | Previous Version | Text Only | Print | Product List | Glossary On
Versions: 1 2 3 4 5 6 7 8 9 10 11 12 13 14 15 16 17 18 19 20 21 22 23 24 25 26 27
000
FTUS41 KBOX 201724
TAFACK
TAF
KACK 201724Z 2018/2118 23016KT 1/2SM FG OVC003
     FM202300 25011KT 1/4SM -SHRA FG OVC003
     FM210200 28008KT 1/4SM FG BKN003
     FM210500 33007KT 1SM BR BKN025
     FM210800 36007KT 6SM BR SCT025
     FM211100 01007KT P6SM FEW130
     FM211300 01007KT 1SM BR FEW250=

USA.gov is the U.S. government's official web portal to all federal, state and local government web resources and services.